Time;durP1;ratioP1;P1;durP2;ratioP2;P2;SDS_P1;SDS_P2;PMS_P1;PMS_P2;Temp;Humidity;BMP_temperature;BMP_pressure;BME280_temperature;BME280_humidity;BME280_pressure;Samples;Min_cycle;Max_cycle;Signal;HPM_P1;HPM_P2
2021/09/07 01:06:36;;;;;;;25.92;14.38;;;18.80;99.90;;;;;;5679138;24;20040;-86
2021/09/07 01:09:07;;;;;;;30.73;16.17;;;18.80;99.90;;;;;;4844051;29;20054;-84
2021/09/07 01:11:35;;;;;;;26.23;14.02;;;18.70;99.90;;;;;;4845119;29;20062;-86
2021/09/07 01:14:05;;;;;;;29.52;15.38;;;18.70;99.90;;;;;;4851055;29;20061;-87
2021/09/07 01:16:34;;;;;;;25.08;15.30;;;18.70;99.90;;;;;;4851370;29;20066;-85
2021/09/07 01:19:05;;;;;;;26.67;14.18;;;18.60;99.90;;;;;;4830343;29;20057;-87
2021/09/07 01:21:33;;;;;;;30.05;14.88;;;18.60;99.90;;;;;;4835435;29;20055;-86
2021/09/07 01:24:01;;;;;;;27.00;14.98;;;18.50;99.90;;;;;;4848510;29;20049;-87
2021/09/07 01:26:29;;;;;;;27.10;16.10;;;18.50;99.90;;;;;;4851009;29;20053;-86
2021/09/07 01:28:57;;;;;;;29.55;16.45;;;18.50;99.90;;;;;;4831285;29;20049;-86
2021/09/07 01:31:27;;;;;;;30.42;16.05;;;18.40;99.90;;;;;;4852754;29;20061;-86
2021/09/07 01:33:55;;;;;;;29.27;15.65;;;18.40;99.90;;;;;;4852913;29;20060;-86
2021/09/07 01:36:23;;;;;;;26.55;15.52;;;18.40;99.90;;;;;;4846255;29;20058;-85
2021/09/07 01:38:51;;;;;;;25.55;15.77;;;18.30;99.90;;;;;;4847888;29;20331;-86
2021/09/07 01:41:19;;;;;;;31.45;16.95;;;18.30;99.90;;;;;;4845876;29;20050;-85
2021/09/07 01:43:51;;;;;;;26.25;14.98;;;18.20;99.90;;;;;;4846116;29;20058;-86
2021/09/07 01:46:20;;;;;;;28.05;16.73;;;18.20;99.90;;;;;;4851778;29;20509;-86
2021/09/07 01:48:48;;;;;;;29.55;15.85;;;18.20;99.90;;;;;;4818779;29;20062;-86
2021/09/07 01:51:15;;;;;;;26.13;15.52;;;18.20;99.90;;;;;;4835241;29;20069;-85
2021/09/07 01:53:43;;;;;;;28.75;17.25;;;18.20;99.90;;;;;;4835331;29;20054;-86
2021/09/07 01:56:12;;;;;;;27.95;16.45;;;18.10;99.90;;;;;;4852140;29;20545;-87
2021/09/07 01:58:42;;;;;;;29.15;16.55;;;18.00;99.90;;;;;;4840988;29;20484;-86
2021/09/07 02:01:12;;;;;;;29.98;17.95;;;18.00;99.90;;;;;;4829417;29;20046;-87
2021/09/07 02:03:44;;;;;;;26.63;15.20;;;18.00;99.90;;;;;;4849684;29;20058;-86
2021/09/07 02:06:11;;;;;;;25.98;16.75;;;17.40;99.90;;;;;;4850418;29;20053;-85
2021/09/07 02:08:40;;;;;;;28.55;17.10;;;17.90;99.90;;;;;;4850491;29;20058;-86
2021/09/07 02:11:09;;;;;;;28.60;16.80;;;17.90;99.90;;;;;;4837848;29;20056;-87
2021/09/07 02:13:37;;;;;;;28.83;16.13;;;17.80;99.90;;;;;;4848108;29;20056;-86
2021/09/07 02:16:05;;;;;;;24.90;16.38;;;17.80;99.90;;;;;;4855125;29;20061;-89
2021/09/07 02:18:33;;;;;;;29.33;17.23;;;17.70;99.90;;;;;;4853217;29;20045;-85
2021/09/07 02:21:02;;;;;;;29.95;18.60;;;17.70;99.90;;;;;;4845323;29;20069;-85
2021/09/07 02:23:31;;;;;;;31.75;17.90;;;17.60;99.90;;;;;;4850211;29;20410;-85
2021/09/07 02:25:59;;;;;;;29.52;18.38;;;17.60;99.90;;;;;;4852179;29;20053;-86
2021/09/07 02:28:29;;;;;;;26.25;16.10;;;17.60;99.90;;;;;;4853184;29;20064;-86
2021/09/07 02:31:02;;;;;;;31.42;18.45;;;17.70;99.90;;;;;;4835986;29;20056;-86
2021/09/07 02:33:31;;;;;;;29.10;16.08;;;17.70;99.90;;;;;;4835271;29;20058;-86
2021/09/07 02:36:00;;;;;;;26.20;16.40;;;17.50;99.90;;;;;;4831349;29;20045;-85
2021/09/07 02:38:31;;;;;;;27.70;17.20;;;17.50;99.90;;;;;;4833304;29;20062;-86
2021/09/07 02:41:00;;;;;;;27.42;16.25;;;17.40;99.90;;;;;;4834902;29;20046;-86
2021/09/07 02:43:28;;;;;;;35.30;16.77;;;17.40;99.90;;;;;;4829132;29;20058;-85
2021/09/07 02:45:57;;;;;;;33.40;17.42;;;17.30;99.90;;;;;;4852339;29;20053;-84
2021/09/07 02:48:25;;;;;;;29.17;17.25;;;17.30;99.90;;;;;;4850974;29;20046;-86
2021/09/07 02:50:56;;;;;;;32.97;16.13;;;17.30;99.90;;;;;;4817542;29;20674;-86
2021/09/07 02:53:26;;;;;;;24.40;14.38;;;17.30;99.90;;;;;;4847028;29;20595;-85
2021/09/07 02:55:55;;;;;;;26.50;16.10;;;17.30;99.90;;;;;;4851784;29;20053;-87
2021/09/07 02:58:22;;;;;;;32.15;16.23;;;17.30;99.90;;;;;;4851542;29;20058;-86
2021/09/07 03:00:50;;;;;;;27.75;15.80;;;17.20;99.90;;;;;;4852196;29;20069;-86
2021/09/07 03:03:22;;;;;;;28.75;16.45;;;17.30;99.90;;;;;;4849323;29;20050;-86
2021/09/07 03:05:53;;;;;;;26.90;16.58;;;17.20;99.90;;;;;;4860545;29;20091;-85
2021/09/07 03:08:22;;;;;;;29.30;17.85;;;17.20;99.90;;;;;;4856677;29;20061;-86
2021/09/07 03:10:51;;;;;;;27.15;16.67;;;17.10;99.90;;;;;;4848502;29;20050;-86
2021/09/07 03:13:19;;;;;;;30.73;16.35;;;17.10;99.90;;;;;;4828641;29;20049;-86
2021/09/07 03:15:47;;;;;;;26.00;16.65;;;17.00;99.90;;;;;;4851591;29;20042;-86
2021/09/07 03:18:16;;;;;;;34.58;18.25;;;17.00;99.90;;;;;;4850640;29;20065;-85
2021/09/07 03:20:47;;;;;;;25.80;17.67;;;17.00;99.90;;;;;;4852571;29;20053;-85
2021/09/07 03:23:16;;;;;;;31.02;16.90;;;17.00;99.90;;;;;;4850156;29;20504;-85
2021/09/07 03:25:45;;;;;;;25.70;17.25;;;17.00;99.90;;;;;;4855860;29;20100;-86
2021/09/07 03:28:14;;;;;;;28.73;17.70;;;17.00;99.90;;;;;;4856683;29;20074;-86
2021/09/07 03:30:43;;;;;;;29.73;15.73;;;17.00;99.90;;;;;;4843616;29;20050;-85
2021/09/07 03:33:11;;;;;;;29.17;16.90;;;17.00;99.90;;;;;;4855148;29;20062;-86
2021/09/07 03:35:40;;;;;;;26.20;15.65;;;17.00;99.90;;;;;;4852801;29;20065;-86
2021/09/07 03:38:08;;;;;;;34.75;18.45;;;17.00;99.90;;;;;;4855962;29;20050;-86
2021/09/07 03:40:38;;;;;;;32.05;18.42;;;17.00;99.90;;;;;;4855907;29;20046;-85
2021/09/07 03:43:06;;;;;;;30.08;17.48;;;16.90;99.90;;;;;;4854399;29;20057;-87
2021/09/07 03:45:35;;;;;;;29.40;18.80;;;16.90;99.90;;;;;;4854425;29;20058;-85
2021/09/07 03:48:05;;;;;;;29.27;19.02;;;16.90;99.90;;;;;;4852106;29;20060;-86
2021/09/07 03:50:35;;;;;;;30.95;18.85;;;16.90;99.90;;;;;;4854110;29;20050;-86
2021/09/07 03:53:06;;;;;;;34.75;19.30;;;16.90;99.90;;;;;;4853945;29;20061;-85
2021/09/07 03:55:35;;;;;;;37.10;19.58;;;16.80;99.90;;;;;;4855265;29;20065;-85
2021/09/07 03:58:04;;;;;;;34.97;19.83;;;16.80;99.90;;;;;;4854156;29;20050;-86
2021/09/07 04:00:33;;;;;;;35.03;19.27;;;16.80;99.90;;;;;;4848292;29;20062;-86
2021/09/07 04:03:02;;;;;;;32.28;19.77;;;16.70;99.90;;;;;;4826673;29;20050;-84
2021/09/07 04:05:30;;;;;;;29.05;16.92;;;16.70;99.90;;;;;;4849045;29;20046;-84
2021/09/07 04:07:58;;;;;;;33.47;20.08;;;16.70;99.90;;;;;;4847206;29;20061;-85
2021/09/07 04:10:26;;;;;;;31.65;19.23;;;16.60;99.90;;;;;;4843306;29;20046;-86
2021/09/07 04:12:54;;;;;;;37.30;21.65;;;16.60;99.90;;;;;;4847738;29;20057;-85
2021/09/07 04:15:24;;;;;;;38.05;20.73;;;16.60;99.90;;;;;;4840022;29;20057;-85
2021/09/07 04:17:52;;;;;;;32.17;20.27;;;16.60;99.90;;;;;;4847279;29;20049;-85
2021/09/07 04:20:21;;;;;;;34.60;20.95;;;16.50;99.90;;;;;;4817271;29;20046;-84
2021/09/07 04:22:50;;;;;;;29.70;19.70;;;16.80;99.90;;;;;;4832530;29;20051;-85
2021/09/07 04:25:20;;;;;;;31.67;20.17;;;16.50;99.90;;;;;;4844063;29;20054;-86
2021/09/07 04:27:53;;;;;;;32.72;18.67;;;16.50;99.90;;;;;;4844386;29;20055;-85
2021/09/07 04:30:22;;;;;;;31.80;20.52;;;16.50;99.90;;;;;;4839778;29;20055;-85
2021/09/07 04:32:50;;;;;;;38.22;21.08;;;16.50;99.90;;;;;;4830215;29;20050;-84
2021/09/07 04:35:18;;;;;;;33.22;19.92;;;16.50;99.90;;;;;;4867214;29;20054;-84
2021/09/07 04:37:46;;;;;;;34.92;19.75;;;16.40;99.90;;;;;;4846484;29;20377;-85
2021/09/07 04:40:16;;;;;;;37.55;19.73;;;16.40;99.90;;;;;;4845850;29;20397;-87
2021/09/07 04:42:44;;;;;;;34.05;21.25;;;16.40;99.90;;;;;;4838591;29;20054;-85
2021/09/07 04:45:15;;;;;;;36.83;21.60;;;16.40;99.90;;;;;;4857274;29;20395;-85
2021/09/07 04:47:43;;;;;;;34.80;21.45;;;16.40;99.90;;;;;;4818632;29;20061;-86
2021/09/07 04:50:12;;;;;;;38.58;22.35;;;16.40;99.90;;;;;;4843903;29;20179;-85
2021/09/07 04:52:40;;;;;;;35.70;21.42;;;16.40;99.90;;;;;;4832264;29;20053;-86
2021/09/07 04:55:09;;;;;;;34.10;20.17;;;16.40;99.90;;;;;;4831525;29;20074;-84
2021/09/07 04:57:37;;;;;;;34.88;21.15;;;16.60;99.90;;;;;;4831986;29;20045;-85
2021/09/07 05:00:06;;;;;;;38.65;21.88;;;16.40;99.90;;;;;;4845440;29;20397;-85
2021/09/07 05:02:36;;;;;;;35.85;18.58;;;16.40;99.90;;;;;;4841892;29;20058;-85
2021/09/07 05:05:07;;;;;;;35.03;20.27;;;16.40;99.90;;;;;;4836901;29;20055;-85
2021/09/07 05:07:38;;;;;;;34.78;20.65;;;16.40;99.90;;;;;;4851174;29;20050;-85
2021/09/07 05:10:06;;;;;;;41.38;20.58;;;16.30;99.90;;;;;;4836911;29;20061;-84
2021/09/07 05:12:34;;;;;;;35.33;22.23;;;16.30;99.90;;;;;;4823798;29;20422;-85
2021/09/07 05:15:07;;;;;;;37.15;23.50;;;16.30;99.90;;;;;;4834857;29;20050;-84
2021/09/07 05:17:37;;;;;;;42.25;23.08;;;16.30;99.90;;;;;;4849560;29;20077;-84
2021/09/07 05:20:05;;;;;;;40.38;25.15;;;16.30;99.90;;;;;;4848512;29;20049;-84
2021/09/07 05:22:33;;;;;;;36.53;22.08;;;16.30;99.90;;;;;;4847303;29;20073;-84
2021/09/07 05:25:07;;;;;;;39.25;21.85;;;16.30;99.90;;;;;;4849158;29;20061;-85
2021/09/07 05:27:36;;;;;;;36.80;21.57;;;16.20;99.90;;;;;;4820698;29;20517;-85
2021/09/07 05:30:07;;;;;;;46.60;24.35;;;16.30;99.90;;;;;;4847381;29;20230;-85
2021/09/07 05:32:36;;;;;;;39.03;24.70;;;16.20;99.90;;;;;;4834056;29;20478;-86
2021/09/07 05:35:06;;;;;;;43.67;25.50;;;16.20;99.90;;;;;;4836344;29;20983;-84
2021/09/07 05:37:39;;;;;;;41.90;23.45;;;16.20;99.90;;;;;;4840981;29;20805;-85
2021/09/07 05:40:09;;;;;;;37.53;23.13;;;16.20;99.90;;;;;;4847377;29;20042;-86
2021/09/07 05:42:44;;;;;;;54.90;23.90;;;16.30;99.90;;;;;;4837954;29;20053;-85
2021/09/07 05:45:15;;;;;;;45.42;24.58;;;16.30;99.90;;;;;;4844060;29;20317;-85
2021/09/07 05:47:44;;;;;;;39.92;23.02;;;16.20;99.90;;;;;;4830817;29;20046;-85
2021/09/07 05:50:14;;;;;;;39.55;24.15;;;16.30;99.90;;;;;;4841001;29;20045;-85
2021/09/07 05:52:45;;;;;;;47.63;24.63;;;16.30;99.90;;;;;;4833059;29;20069;-85
2021/09/07 05:55:22;;;;;;;42.17;23.33;;;16.30;99.90;;;;;;4839565;29;20054;-85
2021/09/07 05:57:53;;;;;;;38.65;21.90;;;16.30;99.90;;;;;;4848434;29;20046;-85
2021/09/07 06:00:29;;;;;;;40.42;22.65;;;16.30;99.90;;;;;;4839661;29;20049;-85
2021/09/07 06:03:00;;;;;;;38.80;23.35;;;16.40;99.90;;;;;;4815928;29;20046;-85
2021/09/07 06:05:28;;;;;;;37.47;23.15;;;16.40;99.90;;;;;;4835149;29;20056;-84
2021/09/07 06:07:56;;;;;;;44.58;25.30;;;16.40;99.90;;;;;;4842721;29;20061;-85
2021/09/07 06:10:23;;;;;;;39.63;25.05;;;16.40;99.90;;;;;;4843226;29;20068;-86
2021/09/07 06:12:51;;;;;;;40.00;23.33;;;16.50;99.90;;;;;;4842838;29;20058;-88
2021/09/07 06:15:19;;;;;;;36.72;24.23;;;16.50;99.90;;;;;;4819216;29;20064;-86
2021/09/07 06:17:48;;;;;;;45.72;24.55;;;16.50;99.90;;;;;;4845577;29;20065;-84
2021/09/07 06:20:16;;;;;;;42.80;24.38;;;16.60;99.90;;;;;;4845016;29;20066;-86
2021/09/07 06:22:44;;;;;;;47.67;26.23;;;17.10;99.90;;;;;;4844056;29;20069;-86
2021/09/07 06:25:14;;;;;;;43.65;24.13;;;16.60;99.90;;;;;;4839828;29;20068;-86
2021/09/07 06:27:47;;;;;;;41.33;24.80;;;16.70;99.90;;;;;;4813272;29;20050;-85
2021/09/07 06:30:19;;;;;;;41.35;23.00;;;16.80;99.90;;;;;;4824482;29;20062;-85
2021/09/07 06:32:46;;;;;;;44.20;25.65;;;16.80;99.90;;;;;;4833089;29;20049;-86
2021/09/07 06:35:15;;;;;;;41.95;24.73;;;16.90;99.90;;;;;;4818336;29;20054;-86
2021/09/07 06:37:44;;;;;;;44.72;25.48;;;16.90;99.90;;;;;;4844703;29;20058;-86
2021/09/07 06:40:14;;;;;;;46.22;25.52;;;17.00;99.90;;;;;;4830628;29;20049;-86
2021/09/07 06:42:43;;;;;;;52.72;27.08;;;17.00;99.90;;;;;;4848435;29;20053;-86
2021/09/07 06:45:12;;;;;;;43.75;26.30;;;17.10;99.90;;;;;;4847247;29;20042;-85
2021/09/07 06:47:40;;;;;;;48.10;27.80;;;17.20;99.90;;;;;;4825567;29;20044;-84
2021/09/07 06:50:09;;;;;;;46.15;30.80;;;17.30;99.90;;;;;;4859210;29;20073;-86
2021/09/07 06:52:39;;;;;;;61.20;36.13;;;17.30;99.90;;;;;;4825836;29;20053;-85
2021/09/07 06:55:08;;;;;;;;;;;17.40;99.90;;;;;;4826286;29;20066;-85
2021/09/07 06:57:38;;;;;;;52.08;34.08;;;17.40;99.90;;;;;;4838403;29;20372;-86
2021/09/07 07:00:06;;;;;;;57.38;35.92;;;17.50;99.90;;;;;;4824567;29;20064;-84
2021/09/07 07:02:40;;;;;;;63.45;37.10;;;17.60;99.90;;;;;;4846862;29;20041;-86
2021/09/07 07:05:10;;;;;;;60.25;35.15;;;17.60;99.90;;;;;;4839961;29;20600;-86
2021/09/07 07:07:40;;;;;;;54.00;33.92;;;17.70;99.90;;;;;;4856489;29;20054;-86
2021/09/07 07:10:09;;;;;;;57.78;34.15;;;17.80;99.90;;;;;;4856169;29;20449;-84
2021/09/07 07:12:38;;;;;;;52.65;34.13;;;17.80;99.90;;;;;;4844916;29;20054;-86
2021/09/07 07:15:07;;;;;;;54.80;34.67;;;17.90;99.90;;;;;;4841385;29;20446;-86
2021/09/07 07:17:35;;;;;;;59.67;34.60;;;18.00;99.90;;;;;;4830084;29;20072;-86
2021/09/07 07:20:04;;;;;;;53.38;32.85;;;18.10;99.90;;;;;;4847986;29;20057;-84
2021/09/07 07:22:34;;;;;;;56.40;34.35;;;18.20;99.90;;;;;;4832469;29;20058;-84
2021/09/07 07:25:06;;;;;;;55.22;33.58;;;18.20;99.90;;;;;;4843357;29;20053;-87
2021/09/07 07:27:38;;;;;;;;;;;18.30;99.90;;;;;;4848610;29;20060;-86
2021/09/07 07:30:08;;;;;;;56.63;32.53;;;18.30;99.90;;;;;;4844575;29;19924;-86
2021/09/07 07:32:37;;;;;;;54.70;34.92;;;18.40;99.90;;;;;;4844822;29;20646;-85
2021/09/07 07:35:05;;;;;;;57.42;34.92;;;18.50;99.90;;;;;;4817851;29;20055;-85
2021/09/07 07:37:34;;;;;;;55.35;34.33;;;18.60;99.90;;;;;;4844563;29;20054;-86
2021/09/07 07:40:06;;;;;;;59.00;36.85;;;18.60;99.90;;;;;;4843798;29;20599;-87
2021/09/07 07:42:36;;;;;;;58.28;36.75;;;18.70;99.90;;;;;;4833094;29;20056;-87
2021/09/07 07:45:09;;;;;;;56.08;34.40;;;18.80;99.90;;;;;;4843975;29;20046;-88
2021/09/07 07:47:37;;;;;;;;;;;18.90;99.90;;;;;;4841091;29;20405;-86
2021/09/07 07:50:09;;;;;;;51.38;33.20;;;19.00;99.90;;;;;;4831066;29;19945;-87
2021/09/07 07:52:37;;;;;;;56.95;32.88;;;19.00;99.90;;;;;;4828334;29;20054;-88
2021/09/07 07:55:06;;;;;;;49.03;30.42;;;19.10;99.90;;;;;;4842062;29;20053;-87
2021/09/07 07:57:35;;;;;;;57.45;35.92;;;19.20;99.90;;;;;;4858734;29;20608;-87
2021/09/07 08:00:07;;;;;;;53.15;32.75;;;19.30;99.90;;;;;;4846816;29;20045;-87
2021/09/07 08:02:39;;;;;;;51.95;34.30;;;19.40;99.90;;;;;;4845866;29;20069;-87
2021/09/07 08:05:09;;;;;;;56.33;34.70;;;19.50;99.90;;;;;;4847076;29;20053;-88
2021/09/07 08:07:43;;;;;;;64.82;33.92;;;19.60;99.90;;;;;;4829218;29;20053;-87
2021/09/07 08:10:13;;;;;;;55.70;31.75;;;19.70;99.90;;;;;;4830903;29;20062;-86
2021/09/07 08:12:44;;;;;;;57.80;32.30;;;19.80;99.90;;;;;;4844139;29;20058;-87
2021/09/07 08:15:26;;;;;;;55.15;31.00;;;19.90;99.90;;;;;;4835565;29;20096;-87
2021/09/07 08:17:54;;;;;;;54.05;31.27;;;20.00;99.90;;;;;;4838852;29;20068;-86
2021/09/07 08:20:24;;;;;;;50.90;30.83;;;20.00;99.90;;;;;;4851964;29;20054;-87
2021/09/07 08:22:53;;;;;;;51.55;30.95;;;20.00;99.90;;;;;;4855151;29;20058;-87
2021/09/07 08:25:22;;;;;;;54.65;31.48;;;20.30;99.90;;;;;;4839756;29;20062;-87
2021/09/07 08:27:52;;;;;;;49.80;29.27;;;20.40;99.90;;;;;;4825512;29;20058;-87
2021/09/07 08:30:21;;;;;;;45.90;26.98;;;20.50;99.90;;;;;;4822980;29;20058;-87
2021/09/07 08:32:53;;;;;;;47.05;28.08;;;20.50;99.90;;;;;;4844933;29;20038;-88
2021/09/07 08:35:21;;;;;;;41.58;25.08;;;20.70;99.90;;;;;;4841401;29;20066;-88
2021/09/07 08:37:49;;;;;;;46.78;27.85;;;20.80;99.90;;;;;;4817840;29;20490;-86
2021/09/07 08:40:19;;;;;;;49.55;28.33;;;20.90;99.90;;;;;;4851086;29;20058;-87
2021/09/07 08:42:47;;;;;;;52.63;25.90;;;21.00;99.90;;;;;;4842198;29;20406;-86
2021/09/07 08:45:16;;;;;;;44.15;25.92;;;21.10;99.90;;;;;;4845074;29;20057;-87
2021/09/07 08:47:44;;;;;;;43.17;25.63;;;21.20;99.90;;;;;;4840704;29;20129;-88
2021/09/07 08:50:14;;;;;;;42.05;24.02;;;21.30;99.90;;;;;;4822442;29;20054;-87
2021/09/07 08:52:43;;;;;;;50.28;24.52;;;21.40;99.90;;;;;;4844284;29;20047;-87
2021/09/07 08:55:12;;;;;;;39.28;23.02;;;21.50;99.90;;;;;;4840920;29;20080;-87
2021/09/07 08:57:40;;;;;;;41.47;22.52;;;21.60;99.90;;;;;;4821158;29;20042;-88
2021/09/07 09:00:10;;;;;;;34.38;20.70;;;21.70;99.90;;;;;;4811468;29;20055;-87
2021/09/07 09:02:41;;;;;;;35.60;20.02;;;21.80;99.90;;;;;;4840132;29;20043;-87
2021/09/07 09:05:12;;;;;;;35.38;20.70;;;21.90;99.90;;;;;;4835260;29;20050;-88
2021/09/07 09:07:42;;;;;;;34.13;19.05;;;22.00;99.90;;;;;;4817356;29;20061;-87
2021/09/07 09:10:20;;;;;;;29.30;16.75;;;22.10;99.90;;;;;;4823871;29;20063;-87
2021/09/07 09:12:49;;;;;;;26.58;16.23;;;22.20;99.90;;;;;;4854926;29;20046;-87
2021/09/07 09:15:22;;;;;;;30.60;16.30;;;22.40;99.90;;;;;;4845433;29;20689;-85
2021/09/07 09:18:04;;;;;;;33.42;17.02;;;22.50;99.90;;;;;;4845648;29;20528;-86
2021/09/07 09:20:33;;;;;;;37.22;17.73;;;22.60;99.90;;;;;;4845552;29;20050;-88
2021/09/07 09:23:02;;;;;;;36.13;18.27;;;22.70;99.90;;;;;;4841810;29;20050;-89
2021/09/07 09:25:41;;;;;;;32.10;16.92;;;22.80;99.90;;;;;;4829287;29;20046;-88
2021/09/07 09:28:24;;;;;;;34.47;17.20;;;23.00;99.90;;;;;;4812394;29;20058;-90
2021/09/07 09:30:55;;;;;;;24.83;11.65;;;23.60;99.90;;;;;;4834760;29;20060;-89
2021/09/07 09:33:28;;;;;;;25.85;10.57;;;23.20;99.90;;;;;;4845004;29;20064;-90
2021/09/07 09:36:01;;;;;;;21.55;9.57;;;23.30;99.90;;;;;;4832952;29;20046;-89
2021/09/07 09:38:34;;;;;;;20.20;9.13;;;23.40;99.90;;;;;;4827136;29;20069;-89
2021/09/07 09:41:05;;;;;;;19.17;7.95;;;23.50;99.80;;;;;;4840069;29;20061;-88
2021/09/07 09:43:43;;;;;;;15.57;8.23;;;23.70;99.50;;;;;;4828369;29;20281;-89
2021/09/07 09:46:21;;;;;;;15.38;8.00;;;23.60;99.10;;;;;;4836821;29;20068;-88
2021/09/07 09:48:51;;;;;;;17.13;7.85;;;23.90;98.30;;;;;;4830808;29;20053;-89
2021/09/07 09:51:20;;;;;;;15.70;6.07;;;24.00;98.20;;;;;;4840898;29;20054;-88
2021/09/07 09:53:51;;;;;;;13.88;6.65;;;24.20;97.80;;;;;;4839681;29;20051;-89
2021/09/07 09:56:19;;;;;;;;;;;24.30;97.50;;;;;;4828017;29;20065;-88
2021/09/07 09:58:49;;;;;;;16.05;8.38;;;24.40;96.40;;;;;;4838924;29;19925;-88
2021/09/07 10:01:21;;;;;;;14.13;6.47;;;23.50;97.30;;;;;;4815228;29;20150;-88
2021/09/07 10:04:00;;;;;;;15.23;7.90;;;24.60;97.40;;;;;;4840593;29;20040;-87
2021/09/07 10:06:29;;;;;;;13.73;6.82;;;24.70;97.20;;;;;;4823872;29;20064;-86
2021/09/07 10:08:58;;;;;;;16.83;7.07;;;24.80;96.80;;;;;;4840559;29;20065;-88
2021/09/07 10:11:30;;;;;;;16.55;6.25;;;25.10;96.50;;;;;;4831763;29;20053;-88
2021/09/07 10:14:07;;;;;;;15.75;7.95;;;25.00;96.20;;;;;;4838605;29;20057;-87
2021/09/07 10:16:41;;;;;;;13.98;6.10;;;25.10;95.90;;;;;;4825882;29;20061;-88
2021/09/07 10:19:36;;;;;;;17.50;6.55;;;25.60;96.20;;;;;;4838520;29;20054;-86
2021/09/07 10:24:57;;;;;;;14.02;5.82;;;25.40;95.80;;;;;;4823939;29;20061;-86
2021/09/07 10:28:08;;;;;;;15.48;6.85;;;25.50;95.50;;;;;;4835244;29;20053;-88
2021/09/07 10:31:03;;;;;;;17.77;6.88;;;25.60;94.50;;;;;;4845685;29;20068;-91
2021/09/07 10:33:32;;;;;;;13.80;6.80;;;25.70;94.40;;;;;;4839898;29;20050;-90
2021/09/07 10:36:04;;;;;;;15.82;6.93;;;25.80;94.80;;;;;;4838810;29;20140;-89
2021/09/07 10:38:48;;;;;;;13.85;5.20;;;25.90;94.70;;;;;;4827865;29;20050;-88
2021/09/07 10:41:38;;;;;;;11.63;5.50;;;26.00;94.30;;;;;;4821984;29;20065;-88
2021/09/07 10:44:10;;;;;;;12.63;5.53;;;26.10;93.40;;;;;;4823637;29;20098;-88
2021/09/07 10:46:55;;;;;;;16.00;6.55;;;26.20;94.10;;;;;;4839513;29;20061;-90
2021/09/07 10:49:37;;;;;;;16.73;6.25;;;26.30;93.60;;;;;;4842946;29;20042;-89
2021/09/07 10:52:08;;;;;;;18.30;6.72;;;26.40;93.50;;;;;;4843380;29;20517;-87
2021/09/07 10:54:55;;;;;;;12.93;5.03;;;26.40;93.70;;;;;;4835310;29;20669;-85
2021/09/07 10:57:53;;;;;;;13.73;5.50;;;26.50;93.20;;;;;;4843299;29;20060;-89
2021/09/07 11:00:21;;;;;;;17.20;5.75;;;26.60;93.00;;;;;;4842368;29;20073;-91
2021/09/07 11:02:55;;;;;;;17.88;6.30;;;26.70;93.20;;;;;;4828741;29;20061;-87
2021/09/07 11:05:44;;;;;;;14.13;6.20;;;26.80;93.10;;;;;;4830843;29;20078;-88
2021/09/07 11:08:18;;;;;;;10.68;5.68;;;26.80;93.00;;;;;;4838662;29;20051;-86
2021/09/07 11:10:54;;;;;;;14.30;5.45;;;27.00;92.80;;;;;;4816837;29;20051;-88
2021/09/07 11:13:49;;;;;;;15.23;6.88;;;26.80;92.40;;;;;;4843429;29;20426;-89
2021/09/07 11:16:29;;;;;;;14.07;6.43;;;27.10;92.30;;;;;;4831010;29;20054;-87
2021/09/07 11:19:01;;;;;;;13.98;6.45;;;27.20;92.50;;;;;;4846644;29;20053;-88
2021/09/07 11:21:32;;;;;;;12.40;6.40;;;27.30;92.40;;;;;;4834645;29;20065;-89
2021/09/07 11:24:03;;;;;;;14.77;5.57;;;27.40;92.30;;;;;;4827938;29;20050;-87
2021/09/07 11:26:32;;;;;;;17.75;6.78;;;27.50;92.10;;;;;;4852234;29;20050;-88
2021/09/07 11:29:00;;;;;;;14.70;6.82;;;27.60;91.90;;;;;;4823387;29;20050;-88
2021/09/07 11:31:28;;;;;;;13.57;5.63;;;27.70;92.10;;;;;;4831066;29;20057;-87
2021/09/07 11:33:56;;;;;;;17.02;6.15;;;27.80;91.80;;;;;;4848425;29;20486;-87
2021/09/07 11:36:24;;;;;;;12.48;5.30;;;28.00;91.70;;;;;;4833943;29;20061;-86
2021/09/07 11:38:53;;;;;;;12.68;6.35;;;28.00;91.50;;;;;;4832618;29;20053;-88
2021/09/07 11:41:25;;;;;;;9.80;4.97;;;28.10;91.20;;;;;;4834007;29;20065;-88
2021/09/07 11:43:57;;;;;;;11.83;5.93;;;28.20;90.80;;;;;;4843815;29;20068;-89
2021/09/07 11:46:32;;;;;;;11.05;5.95;;;28.30;90.80;;;;;;4841326;29;20061;-88
2021/09/07 11:49:10;;;;;;;10.43;5.53;;;28.40;90.40;;;;;;4835343;29;20043;-88
2021/09/07 11:51:43;;;;;;;11.95;5.75;;;28.40;90.60;;;;;;4818589;29;20054;-88
2021/09/07 11:54:18;;;;;;;11.55;5.82;;;28.60;90.60;;;;;;4850117;29;20053;-89
2021/09/07 11:56:55;;;;;;;10.25;5.30;;;28.60;89.60;;;;;;4845757;29;20053;-88
2021/09/07 11:59:27;;;;;;;10.48;5.85;;;28.70;89.30;;;;;;4852976;29;20065;-89
2021/09/07 12:02:04;;;;;;;13.00;5.40;;;28.70;89.50;;;;;;4823358;29;20049;-89
2021/09/07 12:04:33;;;;;;;11.13;5.25;;;28.80;89.70;;;;;;4830956;29;20058;-89
2021/09/07 12:07:06;;;;;;;9.85;4.40;;;28.90;89.70;;;;;;4857932;29;20069;-90
2021/09/07 12:09:35;;;;;;;11.35;4.22;;;29.00;88.60;;;;;;4819320;29;20061;-90
2021/09/07 12:12:03;;;;;;;12.10;4.72;;;29.00;88.40;;;;;;4848278;29;20050;-89
2021/09/07 12:14:43;;;;;;;14.45;5.53;;;29.10;88.20;;;;;;4847869;29;20058;-90
2021/09/07 12:17:17;;;;;;;12.45;4.97;;;29.20;87.60;;;;;;4852795;29;20038;-88
2021/09/07 12:19:49;;;;;;;12.68;5.90;;;29.30;87.60;;;;;;4835815;29;20444;-89
2021/09/07 12:22:18;;;;;;;13.98;5.97;;;29.40;87.30;;;;;;4834623;29;20069;-88
2021/09/07 12:25:12;;;;;;;11.15;5.47;;;29.50;87.30;;;;;;4865416;29;20097;-88
2021/09/07 12:27:53;;;;;;;14.02;5.78;;;29.60;85.90;;;;;;4846580;29;20061;-87
2021/09/07 12:30:39;;;;;;;16.02;5.22;;;29.70;86.30;;;;;;4811861;29;20054;-87
2021/09/07 12:33:10;;;;;;;17.42;5.43;;;29.70;85.00;;;;;;4830191;29;20061;-89
2021/09/07 12:35:55;;;;;;;10.90;5.40;;;29.70;85.90;;;;;;4833723;29;20054;-88
2021/09/07 12:38:49;;;;;;;11.80;4.80;;;29.80;85.50;;;;;;4847084;29;20050;-87
2021/09/07 12:44:31;;;;;;;10.65;4.93;;;29.90;84.00;;;;;;4839910;29;20051;-85
2021/09/07 12:47:00;;;;;;;10.32;4.93;;;30.00;84.40;;;;;;4840131;29;20054;-86
2021/09/07 12:49:27;;;;;;;10.18;4.68;;;30.00;84.10;;;;;;4839781;29;20049;-87
2021/09/07 12:51:57;;;;;;;10.30;4.65;;;29.90;84.20;;;;;;4815162;29;20060;-86
2021/09/07 12:54:26;;;;;;;8.98;5.40;;;29.90;83.50;;;;;;4821309;29;20498;-86
2021/09/07 12:56:55;;;;;;;11.43;5.07;;;29.70;82.30;;;;;;4846199;29;20056;-86
2021/09/07 12:59:39;;;;;;;9.93;4.88;;;29.70;83.00;;;;;;4847585;29;20053;-86
2021/09/07 13:02:08;;;;;;;11.32;5.18;;;29.70;83.00;;;;;;4841115;29;20604;-85
2021/09/07 13:04:50;;;;;;;12.35;6.45;;;29.70;83.30;;;;;;4838805;29;20556;-86
2021/09/07 13:07:19;;;;;;;17.20;5.60;;;29.70;83.20;;;;;;4841511;29;20073;-86
2021/09/07 13:09:47;;;;;;;15.52;8.45;;;29.70;83.80;;;;;;4845746;29;20050;-87
2021/09/07 13:12:16;;;;;;;18.38;7.80;;;29.70;83.90;;;;;;4845480;29;20050;-82
2021/09/07 13:14:44;;;;;;;17.20;8.32;;;29.70;84.40;;;;;;4829091;29;20065;-83
2021/09/07 13:17:12;;;;;;;20.75;9.80;;;29.80;84.30;;;;;;4832638;29;20050;-84
2021/09/07 13:19:46;;;;;;;20.90;10.88;;;30.00;84.50;;;;;;4845312;29;20046;-85
2021/09/07 13:22:53;;;;;;;26.88;11.57;;;30.10;84.70;;;;;;4834082;29;20409;-84
2021/09/07 13:25:23;;;;;;;22.48;11.63;;;30.20;84.90;;;;;;4826017;29;20054;-83
2021/09/07 13:27:51;;;;;;;23.77;11.82;;;30.40;84.20;;;;;;4836849;29;20050;-83
2021/09/07 13:30:19;;;;;;;20.48;10.27;;;30.40;83.80;;;;;;4840249;29;20050;-84
2021/09/07 13:32:47;;;;;;;23.15;11.38;;;30.50;84.00;;;;;;4837231;29;20046;-82
2021/09/07 13:35:15;;;;;;;21.38;10.40;;;30.50;83.60;;;;;;4844472;29;20065;-85
2021/09/07 13:37:43;;;;;;;17.42;8.40;;;30.60;83.80;;;;;;4831764;29;20066;-84
2021/09/07 13:40:11;;;;;;;27.48;10.85;;;30.70;82.90;;;;;;4850466;29;20066;-83
2021/09/07 13:42:39;;;;;;;22.52;11.52;;;30.70;82.80;;;;;;4837755;29;20038;-84
2021/09/07 13:45:07;;;;;;;22.20;10.60;;;30.80;82.90;;;;;;4841750;29;20050;-84
2021/09/07 13:47:36;;;;;;;19.60;10.32;;;30.80;82.90;;;;;;4848183;29;20058;-85
2021/09/07 13:50:04;;;;;;;19.70;8.88;;;30.90;82.80;;;;;;4839613;29;20061;-88
2021/09/07 13:52:39;;;;;;;20.65;11.10;;;31.10;82.50;;;;;;4844253;29;20046;-83
2021/09/07 13:55:11;;;;;;;18.38;9.35;;;31.10;80.60;;;;;;4841640;29;20038;-85
2021/09/07 13:57:40;;;;;;;22.60;12.13;;;31.20;81.50;;;;;;4837554;29;20398;-83
2021/09/07 14:00:10;;;;;;;23.30;9.40;;;31.20;80.60;;;;;;4845137;29;20073;-86
2021/09/07 14:02:41;;;;;;;24.45;10.52;;;31.30;81.00;;;;;;4842118;29;20078;-85